createdAt,value
2017-09-19T00:01:11.452Z,99.99
2017-09-19T00:02:33.323Z,99.99
2017-09-19T00:03:54.473Z,99.99
2017-09-19T00:05:16.613Z,99.99
2017-09-19T00:06:38.467Z,99.99
2017-09-19T00:07:59.629Z,99.99
2017-09-19T00:09:21.733Z,99.99
2017-09-19T00:10:42.923Z,99.99
2017-09-19T00:12:04.717Z,99.99
2017-09-19T00:13:26.513Z,99.99
2017-09-19T00:14:49.027Z,99.99
2017-09-19T00:16:11.243Z,99.99
2017-09-19T00:17:33.074Z,99.99
2017-09-19T00:18:54.543Z,99.99
2017-09-19T00:20:16.608Z,99.99
2017-09-19T00:21:38.426Z,99.99
2017-09-19T00:23:00.331Z,99.99
2017-09-19T00:24:22.183Z,99.99
2017-09-19T00:25:43.767Z,99.99
2017-09-19T00:27:05.916Z,99.99
2017-09-19T00:28:28.426Z,99.99
2017-09-19T00:29:50.568Z,99.99
2017-09-19T00:31:12.343Z,99.99
2017-09-19T00:32:34.140Z,99.99
2017-09-19T00:33:55.947Z,99.99
2017-09-19T00:35:17.462Z,99.99
2017-09-19T00:36:39.489Z,99.99
2017-09-19T00:38:01.294Z,99.99
2017-09-19T00:39:23.123Z,99.99
2017-09-19T00:40:44.943Z,99.99
2017-09-19T00:42:07.040Z,99.99
2017-09-19T00:43:28.535Z,99.99
2017-09-19T00:44:50.984Z,99.99
2017-09-19T00:46:12.800Z,99.99
2017-09-19T00:47:34.944Z,99.99
2017-09-19T00:48:57.170Z,99.99
2017-09-19T00:50:18.994Z,99.99
2017-09-19T00:51:41.115Z,99.99
2017-09-19T00:53:03.542Z,99.99
2017-09-19T00:54:25.358Z,99.99
2017-09-19T00:55:46.844Z,99.99
2017-09-19T00:57:08.971Z,99.99
2017-09-19T00:58:31.448Z,99.99
2017-09-19T00:59:53.581Z,99.99
2017-09-19T01:01:15.413Z,99.99
2017-09-19T01:02:37.635Z,99.99
2017-09-19T01:04:00.008Z,99.99
2017-09-19T01:05:21.910Z,99.99
2017-09-19T01:06:43.408Z,99.99
2017-09-19T01:08:05.544Z,99.99
2017-09-19T01:09:27.813Z,99.99
2017-09-19T01:10:49.423Z,99.99
2017-09-19T01:12:10.917Z,99.99
2017-09-19T01:13:32.733Z,99.99
2017-09-19T01:14:54.824Z,99.99
2017-09-19T01:16:16.930Z,99.99
2017-09-19T01:17:38.811Z,99.99
2017-09-19T01:19:00.939Z,99.99
2017-09-19T01:20:23.482Z,99.99
2017-09-19T01:21:44.333Z,99.99
2017-09-19T01:23:06.148Z,99.99
2017-09-19T01:24:28.603Z,99.99
2017-09-19T01:25:51.023Z,99.99
2017-09-19T01:27:13.242Z,99.99
2017-09-19T01:28:34.745Z,99.99
2017-09-19T01:29:57.193Z,99.99
2017-09-19T01:31:19.048Z,99.99
2017-09-19T01:32:40.846Z,99.99
2017-09-19T01:34:02.651Z,99.99
2017-09-19T01:35:24.783Z,99.99
2017-09-19T01:36:46.924Z,99.99
2017-09-19T01:38:08.743Z,99.99
2017-09-19T01:39:30.561Z,99.99
2017-09-19T01:40:52.393Z,99.99
2017-09-19T01:42:14.568Z,99.99
2017-09-19T01:43:36.363Z,99.99
2017-09-19T01:44:57.522Z,99.99
2017-09-19T01:46:19.026Z,99.99
2017-09-19T01:47:41.195Z,99.99
2017-09-19T01:49:02.678Z,99.99
2017-09-19T01:50:25.164Z,99.99
2017-09-19T01:51:46.334Z,99.99
2017-09-19T01:53:08.814Z,99.99
2017-09-19T01:54:31.021Z,99.99
2017-09-19T01:55:53.135Z,99.99
2017-09-19T01:57:15.366Z,99.99
2017-09-19T01:58:37.798Z,99.99
2017-09-19T02:00:00.274Z,99.99
2017-09-19T02:01:22.070Z,99.99
2017-09-19T02:02:43.552Z,99.99
2017-09-19T02:04:05.656Z,99.99
2017-09-19T02:05:28.093Z,99.99
2017-09-19T02:06:49.566Z,99.99
2017-09-19T02:08:11.065Z,99.99
2017-09-19T02:09:33.798Z,99.99
2017-09-19T02:10:55.933Z,99.99
2017-09-19T02:12:18.483Z,99.99
2017-09-19T02:13:39.958Z,99.99
2017-09-19T02:15:02.758Z,99.99
2017-09-19T02:16:24.997Z,99.99
2017-09-19T02:17:46.813Z,99.99
2017-09-19T02:19:08.633Z,99.99
2017-09-19T02:20:31.340Z,99.99
2017-09-19T02:21:53.144Z,99.99
2017-09-19T02:23:15.579Z,99.99
2017-09-19T02:24:37.808Z,99.99
2017-09-19T02:25:59.584Z,99.99
2017-09-19T02:27:21.073Z,99.99
2017-09-19T02:28:43.511Z,99.99
2017-09-19T02:30:06.022Z,99.99
2017-09-19T02:31:28.186Z,99.99
2017-09-19T02:32:49.998Z,99.99
2017-09-19T02:34:11.232Z,99.99
2017-09-19T02:35:33.367Z,99.99
2017-09-19T02:36:55.205Z,99.99
2017-09-19T02:38:16.733Z,99.99
2017-09-19T02:39:38.213Z,99.99
2017-09-19T02:41:00.738Z,99.99
2017-09-19T02:42:23.117Z,99.99
2017-09-19T02:43:44.602Z,99.99
2017-09-19T02:45:06.100Z,99.99
2017-09-19T02:46:28.319Z,99.99
2017-09-19T02:47:50.055Z,99.99
2017-09-19T02:49:11.858Z,99.99
2017-09-19T02:50:33.993Z,99.99
2017-09-19T02:51:55.813Z,99.99
2017-09-19T02:53:17.231Z,99.99
2017-09-19T02:54:39.357Z,99.99
2017-09-19T02:56:01.273Z,99.99
2017-09-19T02:57:22.739Z,99.99
2017-09-19T02:58:45.358Z,99.99
2017-09-19T03:00:06.964Z,99.99
2017-09-19T03:01:29.411Z,99.99
2017-09-19T03:02:50.573Z,99.99
2017-09-19T03:04:13.053Z,99.99
2017-09-19T03:05:34.925Z,99.99
2017-09-19T03:06:57.384Z,99.99
2017-09-19T03:08:18.874Z,99.99
2017-09-19T03:09:41.638Z,99.99
2017-09-19T03:11:04.092Z,99.99
2017-09-19T03:12:26.283Z,99.99
2017-09-19T03:13:47.754Z,99.99
2017-09-19T03:15:10.500Z,99.99
2017-09-19T03:16:31.655Z,99.99
2017-09-19T03:17:53.819Z,99.99
2017-09-19T03:19:15.943Z,99.99
2017-09-19T03:20:37.668Z,99.99
2017-09-19T03:21:59.192Z,99.99
2017-09-19T03:23:20.694Z,99.99
2017-09-19T03:24:42.808Z,99.99
2017-09-19T03:26:04.881Z,99.99
2017-09-19T03:27:26.701Z,99.99
2017-09-19T03:28:48.843Z,99.99
2017-09-19T03:30:10.657Z,99.99
2017-09-19T03:31:32.403Z,99.99
2017-09-19T03:32:54.853Z,99.99
2017-09-19T03:34:16.337Z,99.99
2017-09-19T03:35:38.164Z,99.99
2017-09-19T03:37:00.843Z,99.99
2017-09-19T03:38:22.651Z,99.99
2017-09-19T03:39:45.100Z,99.99
2017-09-19T03:41:07.533Z,99.99
2017-09-19T03:42:29.322Z,99.99
2017-09-19T03:43:51.452Z,99.99
2017-09-19T03:45:13.308Z,99.99
2017-09-19T03:46:34.782Z,99.99
2017-09-19T03:47:57.279Z,99.99
2017-09-19T03:49:19.098Z,99.99
2017-09-19T03:50:41.216Z,99.99
2017-09-19T03:52:03.338Z,99.99
2017-09-19T03:53:25.815Z,99.99
2017-09-19T03:54:47.952Z,99.99
2017-09-19T03:56:10.269Z,99.99
2017-09-19T03:57:32.375Z,99.99
2017-09-19T03:58:54.823Z,99.99
2017-09-19T04:00:15.977Z,99.99
2017-09-19T04:01:38.129Z,99.99
2017-09-19T04:02:59.983Z,99.99
2017-09-19T04:04:22.412Z,99.99
2017-09-19T04:05:44.248Z,99.99
2017-09-19T04:07:06.043Z,99.99
2017-09-19T04:08:27.579Z,99.99
2017-09-19T04:09:49.643Z,99.99
2017-09-19T04:11:11.553Z,99.99
2017-09-19T04:12:33.667Z,99.99
2017-09-19T04:13:55.814Z,99.99
2017-09-19T04:15:18.513Z,99.99
2017-09-19T04:16:40.629Z,99.99
2017-09-19T04:18:02.101Z,99.99
2017-09-19T04:19:23.638Z,99.99
2017-09-19T04:20:45.384Z,99.99
2017-09-19T04:22:07.934Z,99.99
2017-09-19T04:23:30.400Z,99.99
2017-09-19T04:24:52.194Z,99.99
2017-09-19T04:26:14.323Z,99.99
2017-09-19T04:27:36.768Z,99.99
2017-09-19T04:28:58.943Z,99.99
2017-09-19T04:30:21.364Z,99.99
2017-09-19T04:31:43.145Z,99.99
2017-09-19T04:33:04.950Z,99.99
2017-09-19T04:34:27.194Z,99.99
2017-09-19T04:35:49.001Z,99.99
2017-09-19T04:37:11.156Z,99.99
2017-09-19T04:38:33.012Z,99.99
2017-09-19T04:39:54.636Z,99.99
2017-09-19T04:41:16.445Z,99.99
2017-09-19T04:42:38.509Z,99.99
2017-09-19T04:44:00.640Z,99.99
2017-09-19T04:45:22.802Z,99.99
2017-09-19T04:46:44.973Z,99.99
2017-09-19T04:48:07.556Z,99.99
2017-09-19T04:49:29.704Z,99.99
2017-09-19T04:50:51.826Z,99.99
2017-09-19T04:52:13.978Z,99.99
2017-09-19T04:53:36.415Z,99.99
2017-09-19T04:54:58.284Z,99.99
2017-09-19T04:56:20.523Z,99.99
2017-09-19T04:57:42.327Z,99.99
2017-09-19T04:59:04.786Z,99.99
2017-09-19T05:00:26.999Z,99.99
2017-09-19T05:01:48.799Z,99.99
2017-09-19T05:03:10.612Z,99.99
2017-09-19T05:04:33.414Z,99.99
2017-09-19T05:05:55.851Z,99.99
2017-09-19T05:07:17.968Z,99.99
2017-09-19T05:08:40.423Z,99.99
2017-09-19T05:10:01.880Z,99.99
2017-09-19T05:11:23.498Z,99.99
2017-09-19T05:12:45.639Z,99.99
2017-09-19T05:14:08.081Z,99.99
2017-09-19T05:15:29.907Z,99.99
2017-09-19T05:16:52.077Z,99.99
2017-09-19T05:18:14.246Z,99.99
2017-09-19T05:19:36.466Z,99.99
2017-09-19T05:20:58.734Z,99.99
2017-09-19T05:22:20.878Z,99.99
2017-09-19T05:23:42.423Z,99.99
2017-09-19T05:25:04.564Z,99.99
2017-09-19T05:26:26.946Z,99.99
2017-09-19T05:27:49.073Z,99.99
2017-09-19T05:29:11.215Z,99.99
2017-09-19T05:30:33.360Z,99.99
2017-09-19T05:31:56.060Z,99.99
2017-09-19T05:33:18.275Z,99.99
2017-09-19T05:34:40.061Z,99.99
2017-09-19T05:36:02.013Z,99.99
2017-09-19T05:37:23.848Z,99.99
2017-09-19T05:38:46.309Z,99.99
2017-09-19T05:40:08.133Z,99.99
2017-09-19T05:41:29.934Z,99.99
2017-09-19T05:42:51.783Z,99.99
2017-09-19T05:44:13.911Z,99.99
2017-09-19T05:45:36.432Z,99.99
2017-09-19T05:46:58.663Z,99.99
2017-09-19T05:48:20.406Z,99.99
2017-09-19T05:49:42.554Z,99.99
2017-09-19T05:51:04.733Z,99.99
2017-09-19T05:52:26.572Z,99.99
2017-09-19T05:53:48.663Z,99.99
2017-09-19T05:55:10.957Z,99.99
2017-09-19T05:56:32.752Z,99.99
2017-09-19T05:57:54.913Z,99.99
2017-09-19T05:59:17.157Z,99.99
2017-09-19T06:00:38.655Z,99.99
2017-09-19T06:02:00.813Z,99.99
2017-09-19T06:03:22.294Z,99.99
2017-09-19T06:04:44.451Z,99.99
2017-09-19T06:06:06.588Z,99.99
2017-09-19T06:07:28.724Z,99.99
2017-09-19T06:08:50.863Z,99.99
2017-09-19T06:10:13.225Z,99.99
2017-09-19T06:11:35.722Z,99.99
2017-09-19T06:12:57.657Z,99.99
2017-09-19T06:14:19.471Z,99.99
2017-09-19T06:15:42.281Z,99.99
2017-09-19T06:17:03.473Z,99.99
2017-09-19T06:18:25.622Z,99.99
2017-09-19T06:19:47.123Z,99.99
2017-09-19T06:21:09.649Z,99.99
2017-09-19T06:22:32.183Z,99.99
2017-09-19T06:23:53.684Z,99.99
2017-09-19T06:25:16.134Z,99.99
2017-09-19T06:26:38.280Z,99.99
2017-09-19T06:28:00.403Z,99.99
2017-09-19T06:29:22.534Z,99.99
2017-09-19T06:30:44.662Z,99.99
2017-09-19T06:32:07.196Z,99.99
2017-09-19T06:33:28.710Z,99.99
2017-09-19T06:34:51.349Z,99.99
2017-09-19T06:36:12.518Z,99.99
2017-09-19T06:37:35.213Z,99.99
2017-09-19T06:38:57.353Z,99.99
2017-09-19T06:40:18.854Z,99.99
2017-09-19T06:41:40.993Z,99.99
2017-09-19T06:43:03.464Z,99.99
2017-09-19T06:44:25.576Z,99.99
2017-09-19T06:45:47.684Z,99.99
2017-09-19T06:47:09.524Z,99.99
2017-09-19T06:48:31.895Z,99.99
2017-09-19T06:49:54.322Z,99.99
2017-09-19T06:51:16.252Z,99.99
2017-09-19T06:52:37.794Z,99.99
2017-09-19T06:54:00.233Z,99.99
2017-09-19T06:55:22.672Z,99.99
2017-09-19T06:56:44.790Z,99.99
2017-09-19T06:58:07.275Z,99.99
2017-09-19T06:59:29.642Z,99.99
2017-09-19T07:00:51.133Z,99.99
2017-09-19T07:02:13.034Z,99.99
2017-09-19T07:03:35.159Z,99.99
2017-09-19T07:04:57.565Z,99.99
2017-09-19T07:06:18.744Z,99.99
2017-09-19T07:07:40.554Z,99.99
2017-09-19T07:09:03.015Z,99.99
2017-09-19T07:10:25.162Z,99.99
2017-09-19T07:11:47.613Z,99.99
2017-09-19T07:13:09.776Z,99.99
2017-09-19T07:14:31.603Z,99.99
2017-09-19T07:15:53.657Z,99.99
2017-09-19T07:17:15.453Z,99.99
2017-09-19T07:18:37.563Z,99.99
2017-09-19T07:19:59.714Z,99.99
2017-09-19T07:21:21.883Z,99.99
2017-09-19T07:22:44.463Z,99.99
2017-09-19T07:24:06.584Z,99.99
2017-09-19T07:25:28.053Z,99.99
2017-09-19T07:26:50.243Z,99.99
2017-09-19T07:28:11.411Z,99.99
2017-09-19T07:29:33.542Z,99.99
2017-09-19T07:30:55.670Z,99.99
2017-09-19T07:32:18.113Z,99.99
2017-09-19T07:33:40.557Z,99.99
2017-09-19T07:35:02.358Z,99.99
2017-09-19T07:36:24.584Z,99.99
2017-09-19T07:37:47.089Z,99.99
2017-09-19T07:39:08.888Z,99.99
2017-09-19T07:40:30.383Z,99.99
2017-09-19T07:41:52.553Z,99.99
2017-09-19T07:43:14.784Z,99.99
2017-09-19T07:44:36.003Z,99.99
2017-09-19T07:45:57.503Z,99.99
2017-09-19T07:47:19.290Z,99.99
2017-09-19T07:48:41.781Z,99.99
2017-09-19T07:50:03.934Z,99.99
2017-09-19T07:51:26.368Z,99.99
2017-09-19T07:52:48.167Z,99.99
2017-09-19T07:54:10.270Z,99.99
2017-09-19T07:55:31.764Z,99.99
2017-09-19T07:56:53.897Z,99.99
2017-09-19T07:58:16.350Z,99.99
2017-09-19T07:59:38.840Z,99.99
2017-09-19T08:01:00.989Z,99.99
2017-09-19T08:02:23.101Z,99.99
2017-09-19T08:03:44.277Z,99.99
2017-09-19T08:05:06.647Z,99.99
2017-09-19T08:06:29.134Z,99.99
2017-09-19T08:07:51.671Z,99.99
2017-09-19T08:09:13.494Z,99.99
2017-09-19T08:10:35.970Z,99.99
2017-09-19T08:11:58.096Z,99.99
2017-09-19T08:13:20.550Z,99.99
2017-09-19T08:14:42.723Z,99.99
2017-09-19T08:16:05.547Z,99.99
2017-09-19T08:17:27.800Z,99.99
2017-09-19T08:18:49.603Z,99.99
2017-09-19T08:20:11.443Z,99.99
2017-09-19T08:21:33.684Z,99.99
2017-09-19T08:22:55.820Z,99.99
2017-09-19T08:24:18.323Z,99.99
2017-09-19T08:25:40.117Z,99.99
2017-09-19T08:27:02.590Z,99.99
2017-09-19T08:28:24.422Z,99.99
2017-09-19T08:29:45.904Z,99.99
2017-09-19T08:31:06.754Z,99.99
2017-09-19T08:32:29.572Z,99.99
2017-09-19T08:33:51.543Z,99.99
2017-09-19T08:35:13.413Z,99.99
2017-09-19T08:36:35.323Z,99.99
2017-09-19T08:37:57.673Z,99.99
2017-09-19T08:39:19.841Z,99.99
2017-09-19T08:40:41.964Z,99.99
2017-09-19T08:42:04.083Z,99.99
2017-09-19T08:43:26.974Z,99.99
2017-09-19T08:44:48.840Z,99.99
2017-09-19T08:46:10.661Z,99.99
2017-09-19T08:47:32.792Z,99.99
2017-09-19T08:48:55.235Z,99.99
2017-09-19T08:50:17.703Z,99.99
2017-09-19T08:51:39.866Z,99.99
2017-09-19T08:53:02.382Z,99.99
2017-09-19T08:54:24.791Z,99.99
2017-09-19T08:55:46.923Z,99.99
2017-09-19T08:57:09.173Z,99.99
2017-09-19T08:58:31.120Z,99.99
2017-09-19T08:59:53.722Z,99.99
2017-09-19T09:01:15.872Z,99.99
2017-09-19T09:02:38.023Z,99.99
2017-09-19T09:04:00.152Z,99.99
2017-09-19T09:05:21.584Z,99.99
2017-09-19T09:06:43.402Z,99.99
2017-09-19T09:08:05.558Z,99.99
2017-09-19T09:09:27.350Z,99.99
2017-09-19T09:10:49.213Z,99.99
2017-09-19T09:12:11.021Z,99.99
2017-09-19T09:13:33.500Z,99.99
2017-09-19T09:14:55.671Z,99.99
2017-09-19T09:16:17.185Z,99.99
2017-09-19T09:17:39.343Z,99.99
2017-09-19T09:19:01.783Z,99.99
2017-09-19T09:20:23.623Z,99.99
2017-09-19T09:21:46.075Z,99.99
2017-09-19T09:23:08.342Z,99.99
2017-09-19T09:24:30.489Z,99.99
2017-09-19T09:25:52.082Z,99.99
2017-09-19T09:27:14.528Z,99.99
2017-09-19T09:28:36.982Z,99.99
2017-09-19T09:29:59.127Z,99.99
2017-09-19T09:31:21.663Z,99.99
2017-09-19T09:32:44.787Z,99.99
2017-09-19T09:34:06.345Z,99.99
2017-09-19T09:35:28.792Z,99.99
2017-09-19T09:36:51.273Z,99.99
2017-09-19T09:38:14.145Z,99.99
2017-09-19T09:39:35.811Z,99.99
2017-09-19T09:40:58.259Z,99.99
2017-09-19T09:42:20.233Z,99.99
2017-09-19T09:43:42.032Z,99.99
2017-09-19T09:45:04.180Z,99.99
2017-09-19T09:46:26.696Z,99.99
2017-09-19T09:47:48.864Z,99.99
2017-09-19T09:49:10.740Z,99.99
2017-09-19T09:50:32.546Z,99.99
2017-09-19T09:51:54.692Z,99.99
2017-09-19T09:53:16.833Z,99.99
2017-09-19T09:54:38.955Z,99.99
2017-09-19T09:56:01.412Z,99.99
2017-09-19T09:57:22.592Z,99.99
2017-09-19T09:58:44.116Z,99.99
2017-09-19T10:00:06.304Z,99.99
2017-09-19T10:01:28.420Z,99.99
2017-09-19T10:02:51.002Z,99.99
2017-09-19T10:04:12.806Z,99.99
2017-09-19T10:05:35.302Z,99.99
2017-09-19T10:06:57.122Z,99.99
2017-09-19T10:08:19.296Z,99.99
2017-09-19T10:09:41.165Z,99.99
2017-09-19T10:11:03.998Z,99.99
2017-09-19T10:12:25.813Z,99.99
2017-09-19T10:13:47.955Z,99.99
2017-09-19T10:15:10.415Z,99.99
2017-09-19T10:16:32.570Z,99.99
2017-09-19T10:17:54.381Z,99.99
2017-09-19T10:19:16.213Z,99.99
2017-09-19T10:20:38.033Z,99.99
2017-09-19T10:22:00.743Z,99.99
2017-09-19T10:23:22.912Z,99.99
2017-09-19T10:24:44.742Z,99.99
2017-09-19T10:26:06.008Z,99.99
2017-09-19T10:27:27.842Z,99.99
2017-09-19T10:28:50.025Z,99.99
2017-09-19T10:30:11.853Z,99.99
2017-09-19T10:31:34.053Z,99.99
2017-09-19T10:32:56.563Z,99.99
2017-09-19T10:34:18.076Z,99.99
2017-09-19T10:35:39.893Z,99.99
2017-09-19T10:37:02.321Z,99.99
2017-09-19T10:38:39.380Z,99.99
2017-09-19T10:40:01.198Z,99.99
2017-09-19T10:41:23.333Z,99.99
2017-09-19T10:42:45.478Z,99.99
2017-09-19T10:44:08.426Z,99.99
2017-09-19T10:45:30.581Z,99.99
2017-09-19T10:46:52.723Z,99.99
2017-09-19T10:48:14.529Z,99.99
2017-09-19T10:49:37.014Z,99.99
2017-09-19T10:50:59.488Z,99.99
2017-09-19T10:52:21.762Z,99.99
2017-09-19T10:53:43.900Z,99.99
2017-09-19T10:55:06.384Z,99.99
2017-09-19T10:56:28.529Z,99.99
2017-09-19T10:57:50.653Z,99.99
2017-09-19T10:59:12.791Z,99.99
2017-09-19T11:00:35.053Z,99.99
2017-09-19T11:01:57.196Z,99.99
2017-09-19T11:03:19.476Z,99.99
2017-09-19T11:04:41.943Z,99.99
2017-09-19T11:06:03.783Z,99.99
2017-09-19T11:07:25.645Z,99.99
2017-09-19T11:08:47.153Z,99.99
2017-09-19T11:10:08.983Z,99.99
2017-09-19T11:11:31.366Z,99.99
2017-09-19T11:12:53.838Z,99.99
2017-09-19T11:14:15.988Z,99.99
2017-09-19T11:15:37.892Z,99.99
2017-09-19T11:17:00.081Z,99.99
2017-09-19T11:18:22.220Z,99.99
2017-09-19T11:19:44.682Z,99.99
2017-09-19T11:21:06.208Z,99.99
2017-09-19T11:22:28.535Z,99.99
2017-09-19T11:23:50.413Z,99.99
2017-09-19T11:25:12.224Z,99.99
2017-09-19T11:26:34.377Z,99.99
2017-09-19T11:27:57.173Z,99.99
2017-09-19T11:29:19.635Z,99.99
2017-09-19T11:30:41.763Z,99.99
2017-09-19T11:32:04.222Z,99.99
2017-09-19T11:33:26.433Z,99.99
2017-09-19T11:34:48.578Z,99.99
2017-09-19T11:36:10.751Z,99.99
2017-09-19T11:37:32.884Z,99.99
2017-09-19T11:38:55.378Z,99.99
2017-09-19T11:40:17.185Z,99.99
2017-09-19T11:41:39.103Z,99.99
2017-09-19T11:43:00.927Z,99.99
2017-09-19T11:44:23.743Z,99.99
2017-09-19T11:45:45.561Z,99.99
2017-09-19T11:47:07.053Z,99.99
2017-09-19T11:48:29.293Z,99.99
2017-09-19T11:49:51.352Z,99.99
2017-09-19T11:51:13.197Z,99.99
2017-09-19T11:52:35.668Z,99.99
2017-09-19T11:53:57.824Z,99.99
2017-09-19T11:55:20.538Z,99.99
2017-09-19T11:56:42.356Z,99.99
2017-09-19T11:58:04.835Z,99.99
2017-09-19T11:59:26.339Z,99.99
2017-09-19T12:00:48.516Z,99.99
2017-09-19T12:02:10.982Z,99.99
2017-09-19T12:03:32.806Z,99.99
2017-09-19T12:04:54.950Z,99.99
2017-09-19T12:06:17.465Z,99.99
2017-09-19T12:07:39.603Z,99.99
2017-09-19T12:09:02.074Z,99.99
2017-09-19T12:10:24.545Z,99.99
2017-09-19T12:11:47.038Z,99.99
2017-09-19T12:13:09.481Z,99.99
2017-09-19T12:14:31.450Z,99.99
2017-09-19T12:15:53.661Z,99.99
2017-09-19T12:17:15.826Z,99.99
2017-09-19T12:18:38.287Z,99.99
2017-09-19T12:19:59.792Z,99.99
2017-09-19T12:21:21.611Z,99.99
2017-09-19T12:22:43.987Z,99.99
2017-09-19T12:24:06.424Z,99.99
2017-09-19T12:25:28.583Z,99.99
2017-09-19T12:26:50.711Z,99.99
2017-09-19T12:28:13.554Z,99.99
2017-09-19T12:29:35.373Z,99.99
2017-09-19T12:30:57.182Z,99.99
2017-09-19T12:32:19.638Z,99.99
2017-09-19T12:33:42.464Z,99.99
2017-09-19T12:35:04.947Z,99.99
2017-09-19T12:36:26.804Z,99.99
2017-09-19T12:37:48.982Z,99.99
2017-09-19T12:39:11.401Z,99.99
2017-09-19T12:40:33.892Z,99.99
2017-09-19T12:41:56.368Z,99.99
2017-09-19T12:43:18.523Z,99.99
2017-09-19T12:44:40.692Z,99.99
2017-09-19T12:46:02.831Z,99.99
2017-09-19T12:47:25.353Z,99.99
2017-09-19T12:48:47.164Z,99.99
2017-09-19T12:50:09.357Z,99.99
2017-09-19T12:51:31.196Z,99.99
2017-09-19T12:52:53.367Z,99.99
2017-09-19T12:54:15.825Z,99.99
2017-09-19T12:55:38.645Z,99.99
2017-09-19T12:57:00.803Z,99.99
2017-09-19T12:58:22.716Z,99.99
2017-09-19T12:59:44.889Z,99.99
2017-09-19T13:01:07.525Z,99.99
2017-09-19T13:02:29.674Z,99.99
2017-09-19T13:03:52.174Z,99.99
2017-09-19T13:05:14.016Z,99.99
2017-09-19T13:06:36.466Z,99.99
2017-09-19T13:07:58.644Z,99.99
2017-09-19T13:09:20.997Z,99.99
2017-09-19T13:10:43.497Z,99.99
2017-09-19T13:12:06.342Z,99.99
2017-09-19T13:13:28.496Z,99.99
2017-09-19T13:14:51.063Z,99.99
2017-09-19T13:16:13.224Z,99.99
2017-09-19T13:17:35.652Z,99.99
2017-09-19T13:18:57.794Z,99.99
2017-09-19T13:20:20.298Z,99.99
2017-09-19T13:21:42.443Z,99.99
2017-09-19T13:23:04.873Z,99.99
2017-09-19T13:24:26.703Z,99.99
2017-09-19T13:25:49.216Z,99.99
2017-09-19T13:27:11.056Z,99.99
2017-09-19T13:28:33.564Z,99.99
2017-09-19T13:29:55.838Z,99.99
2017-09-19T13:31:17.744Z,99.99
2017-09-19T13:32:40.234Z,99.99
2017-09-19T13:34:02.629Z,99.99
2017-09-19T13:35:24.466Z,99.99
2017-09-19T13:36:46.617Z,99.99
2017-09-19T13:38:09.111Z,99.06
2017-09-19T13:39:31.328Z,99.99
2017-09-19T13:40:52.819Z,99.99
2017-09-19T13:42:14.326Z,98.58
2017-09-19T13:43:35.505Z,98.44
2017-09-19T13:44:58.333Z,96.99
2017-09-19T13:46:20.483Z,98.34
2017-09-19T13:47:42.325Z,97.47
2017-09-19T13:49:04.500Z,96.7
2017-09-19T13:50:26.745Z,94.49
2017-09-19T13:51:48.944Z,96.27
2017-09-19T13:53:11.204Z,96.37
2017-09-19T13:54:33.442Z,95.5
2017-09-19T13:55:55.577Z,95.69
2017-09-19T13:57:18.165Z,94.34
2017-09-19T13:58:40.302Z,93.38
2017-09-19T14:00:02.782Z,94.97
2017-09-19T14:01:24.655Z,94.87
2017-09-19T14:02:46.595Z,93.82
2017-09-19T14:04:08.844Z,95.45
2017-09-19T14:05:31.346Z,97.57
2017-09-19T14:06:53.458Z,97.57
2017-09-19T14:08:15.960Z,97.81
2017-09-19T14:09:38.141Z,97.81
2017-09-19T14:11:00.304Z,97.62
2017-09-19T14:12:23.252Z,98.1
2017-09-19T14:13:45.732Z,98.14
2017-09-19T14:15:07.664Z,99.3
2017-09-19T14:16:29.513Z,99.99
2017-09-19T14:17:52.354Z,99.99
2017-09-19T14:19:14.520Z,99.99
2017-09-19T14:20:36.362Z,99.99
2017-09-19T14:21:58.611Z,99.99
2017-09-19T14:23:35.601Z,99.99
2017-09-19T14:24:57.749Z,99.99
2017-09-19T14:26:19.711Z,99.99
2017-09-19T14:27:42.011Z,99.99
2017-09-19T14:29:04.520Z,99.99
2017-09-19T14:30:26.392Z,99.99
2017-09-19T14:31:48.680Z,99.99
2017-09-19T14:33:10.866Z,99.99
2017-09-19T14:34:33.391Z,99.99
2017-09-19T14:35:55.883Z,99.99
2017-09-19T14:37:18.381Z,99.99
2017-09-19T14:38:40.547Z,99.99
2017-09-19T14:40:03.372Z,99.99
2017-09-19T14:41:25.213Z,99.99
2017-09-19T14:42:47.044Z,99.99
2017-09-19T14:44:09.184Z,99.99
2017-09-19T14:45:31.910Z,99.99
2017-09-19T14:46:54.523Z,99.99
2017-09-19T14:48:16.702Z,99.99
2017-09-19T14:49:38.202Z,99.99
2017-09-19T14:51:00.737Z,99.99
2017-09-19T14:52:22.897Z,99.99
2017-09-19T14:53:45.049Z,99.99
2017-09-19T14:55:06.566Z,99.99
2017-09-19T14:56:29.141Z,99.99
2017-09-19T14:57:51.291Z,99.99
2017-09-19T14:59:13.493Z,99.99
2017-09-19T15:00:35.704Z,99.99
2017-09-19T15:01:58.550Z,99.99
2017-09-19T15:03:20.714Z,99.99
2017-09-19T15:04:43.190Z,99.99
2017-09-19T15:06:05.678Z,99.99
2017-09-19T15:07:28.275Z,99.99
2017-09-19T15:08:50.103Z,99.99
2017-09-19T15:10:11.931Z,99.99
2017-09-19T15:11:34.406Z,99.99
2017-09-19T15:12:56.307Z,99.99
2017-09-19T15:14:18.791Z,99.99
2017-09-19T15:15:40.982Z,99.99
2017-09-19T15:17:02.874Z,99.99
2017-09-19T15:18:25.122Z,99.99
2017-09-19T15:19:46.953Z,99.99
2017-09-19T15:21:09.117Z,99.99
2017-09-19T15:22:31.257Z,99.99
2017-09-19T15:23:53.059Z,99.99
2017-09-19T15:25:15.261Z,99.99
2017-09-19T15:26:37.730Z,99.99
2017-09-19T15:28:00.225Z,99.99
2017-09-19T15:29:22.684Z,99.99
2017-09-19T15:30:44.971Z,99.99
2017-09-19T15:32:07.183Z,99.99
2017-09-19T15:33:29.325Z,99.99
2017-09-19T15:34:51.826Z,99.99
2017-09-19T15:36:13.672Z,99.99
2017-09-19T15:37:36.246Z,99.99
2017-09-19T15:38:58.411Z,99.99
2017-09-19T15:40:20.509Z,99.99
2017-09-19T15:41:42.031Z,99.99
2017-09-19T15:43:03.873Z,99.99
2017-09-19T15:44:25.702Z,99.99
2017-09-19T15:45:48.702Z,99.99
2017-09-19T15:47:10.551Z,99.99
2017-09-19T15:48:33.091Z,99.99
2017-09-19T15:49:55.583Z,99.99
2017-09-19T15:51:18.070Z,99.99
2017-09-19T15:52:40.251Z,99.99
2017-09-19T15:54:02.858Z,99.99
2017-09-19T15:55:25.337Z,99.99
2017-09-19T15:56:47.804Z,99.99
2017-09-19T15:58:10.343Z,99.99
2017-09-19T15:59:32.822Z,99.99
2017-09-19T16:00:54.988Z,99.99
2017-09-19T16:02:17.833Z,99.99
2017-09-19T16:03:40.306Z,99.99
2017-09-19T16:05:02.438Z,99.99
2017-09-19T16:06:24.932Z,99.99
2017-09-19T16:07:47.739Z,99.99
2017-09-19T16:09:10.330Z,99.99
2017-09-19T16:10:32.801Z,99.99
2017-09-19T16:11:55.054Z,99.99
2017-09-19T16:13:17.217Z,99.99
2017-09-19T16:14:39.430Z,99.99
2017-09-19T16:16:01.564Z,99.99
2017-09-19T16:17:24.083Z,99.99
2017-09-19T16:18:46.291Z,99.99
2017-09-19T16:20:08.882Z,99.99
2017-09-19T16:21:31.358Z,99.99
2017-09-19T16:22:53.215Z,99.99
2017-09-19T16:24:15.758Z,99.99
2017-09-19T16:25:37.923Z,99.99
2017-09-19T16:27:00.463Z,99.99
2017-09-19T16:28:22.362Z,99.99
2017-09-19T16:29:45.191Z,99.99
2017-09-19T16:31:07.031Z,99.99
2017-09-19T16:32:28.898Z,99.99
2017-09-19T16:33:50.799Z,99.99
2017-09-19T16:35:13.651Z,99.99
2017-09-19T16:36:35.832Z,99.99
2017-09-19T16:37:58.302Z,99.99
2017-09-19T16:39:20.519Z,99.99
2017-09-19T16:40:42.361Z,99.99
2017-09-19T16:42:04.555Z,99.99
2017-09-19T16:43:26.728Z,99.99
2017-09-19T16:44:49.202Z,99.99
2017-09-19T16:46:12.042Z,99.99
2017-09-19T16:47:34.215Z,99.99
2017-09-19T16:48:56.712Z,99.99
2017-09-19T16:50:19.240Z,99.99
2017-09-19T16:51:42.275Z,99.99
2017-09-19T16:53:04.756Z,99.99
2017-09-19T16:54:26.906Z,99.99
2017-09-19T16:55:49.071Z,99.99
2017-09-19T16:57:11.257Z,99.99
2017-09-19T16:58:33.522Z,99.99
2017-09-19T16:59:56.030Z,99.99
2017-09-19T17:01:18.221Z,99.99
2017-09-19T17:02:41.017Z,99.99
2017-09-19T17:04:03.526Z,99.99
2017-09-19T17:05:25.464Z,99.99
2017-09-19T17:06:48.011Z,99.99
2017-09-19T17:08:10.744Z,99.99
2017-09-19T17:09:33.228Z,99.99
2017-09-19T17:10:55.384Z,99.99
2017-09-19T17:12:17.557Z,99.99
2017-09-19T17:13:40.312Z,99.99
2017-09-19T17:15:02.474Z,99.99
2017-09-19T17:16:24.643Z,99.99
2017-09-19T17:17:46.847Z,99.99
2017-09-19T17:19:09.682Z,99.99
2017-09-19T17:20:32.314Z,99.99
2017-09-19T17:21:54.819Z,99.99
2017-09-19T17:23:16.983Z,99.99
2017-09-19T17:24:39.853Z,99.99
2017-09-19T17:26:01.685Z,99.99
2017-09-19T17:27:23.856Z,99.99
2017-09-19T17:28:45.713Z,99.99
2017-09-19T17:30:08.488Z,99.99
2017-09-19T17:31:31.087Z,99.99
2017-09-19T17:32:53.984Z,99.99
2017-09-19T17:34:16.198Z,99.99
2017-09-19T17:35:38.930Z,99.99
2017-09-19T17:37:01.493Z,99.99
2017-09-19T17:38:24.091Z,99.99